Helas — C4AZ2 — position and weather

sailwx.info

Track history (hours):
 
Tides and Currents Weather Stations Pressure Air Temp Water Temp Dewpoint Dewpoint Depression Visibility Wind Speed Wind Dir Waves Ship Positions

Helas

Last reported at 2017-Feb-19 19:19 UTC. Time now 2017-Feb-23 04:45 UTC.
Position N 49°39' W 003°43'.

Length 89 m; draft 5.6 m.

Type: Cargo ship. MMSI: 210031000.

Date/timePositionNaut miles runAvg speedWind from/ knotsBaromVisibWave heightAir tempDewpointWater temp
2017-Feb-19 19:19N 49°39' W 003°43'11 9.3
2017-Feb-19 18:09N 49°44' W 003°29'6 9.3
2017-Feb-19 17:32N 49°47' W 003°21'18 9.0
2017-Feb-19 15:33N 49°56' W 002°57'40 8.0
2017-Feb-19 10:33N 50°08' W 001°58'9 9.1
2017-Feb-19 09:33N 50°11' W 001°44'1010.0
2017-Feb-19 08:33N 50°14' W 001°29'1110.7
2017-Feb-19 07:32N 50°17' W 001°13'2110.7
2017-Feb-19 05:33N 50°23' W 000°41'10 9.8
2017-Feb-19 04:33N 50°26' W 000°27'9 9.2
2017-Feb-19 03:33N 50°29' W 000°13'8 8.5
2017-Feb-19 02:33N 50°31' W 000°00'8 8.1
2017-Feb-19 01:33N 50°34' E 000°12'8 8.0
2017-Feb-19 00:33N 50°36' E 000°24'8 8.5
2017-Feb-18 23:33N 50°40' E 000°36'10 9.5
2017-Feb-18 22:33N 50°45' E 000°49'10 9.9
2017-Feb-18 21:33N 50°51' E 001°01'10 9.8
2017-Feb-18 20:33N 50°57' E 001°13'9 9.2
2017-Feb-18 19:33N 51°03' E 001°25'8 8.1
2017-Feb-18 18:33N 51°08' E 001°35'7 7.2
2017-Feb-18 17:33N 51°13' E 001°43'7 7.4
2017-Feb-18 16:33N 51°19' E 001°50'8 8.3
2017-Feb-18 15:33N 51°26' E 001°56'9 9.6
2017-Feb-18 14:33N 51°33' E 002°06'1110.6
2017-Feb-18 13:31N 51°42' E 002°18'56 9.4
2017-Feb-18 07:33N 52°20' E 003°25'8 8.2
2017-Feb-18 06:33N 52°24' E 003°37'10 8.4
2017-Feb-18 05:25N 52°29' E 003°50'8 9.1
2017-Feb-18 04:33N 52°31' E 004°02'10 9.5
2017-Feb-18 03:33N 52°30' E 004°18'9 9.0
2017-Feb-18 02:34N 52°28' E 004°32'3 2.5
2017-Feb-18 01:31N 52°28' E 004°36'0 0.0
2017-Feb-18 00:31N 52°28' E 004°36'0 0.0
2017-Feb-17 23:31N 52°28' E 004°36'0 0.0
2017-Feb-17 22:31N 52°28' E 004°36'0 0.0
2017-Feb-17 21:31N 52°28' E 004°36'0 0.0
2017-Feb-17 20:28N 52°28' E 004°36'0 0.0
2017-Feb-17 18:31N 52°28' E 004°36'0 0.0
2017-Feb-17 17:31N 52°28' E 004°36'0 0.0
2017-Feb-17 16:31N 52°28' E 004°36'0 0.0
2017-Feb-17 15:31N 52°28' E 004°36'0 0.0
2017-Feb-17 14:31N 52°28' E 004°36'0 0.0
2017-Feb-17 13:31N 52°28' E 004°36'0 0.0
2017-Feb-17 12:31N 52°28' E 004°36'0 0.0
2017-Feb-17 11:31N 52°28' E 004°36'0 0.0
2017-Feb-17 10:31N 52°28' E 004°36'0 0.0
2017-Feb-17 09:31N 52°28' E 004°36'0 0.0
2017-Feb-17 08:31N 52°28' E 004°36'0 0.0
2017-Feb-17 07:34N 52°28' E 004°36'0 0.0
2017-Feb-17 06:33N 52°28' E 004°36'0 0.0
2017-Feb-17 05:33N 52°28' E 004°36'0 0.0
2017-Feb-17 04:33N 52°28' E 004°36'0 0.0
2017-Feb-17 03:27N 52°28' E 004°36'0 0.0
2017-Feb-17 02:33N 52°28' E 004°36'0 0.0
2017-Feb-17 01:33N 52°28' E 004°36'0 0.0
2017-Feb-17 00:33N 52°28' E 004°36'0 0.0
2017-Feb-16 23:33N 52°28' E 004°36'0 0.0
2017-Feb-16 22:33N 52°28' E 004°36'0 0.0
2017-Feb-16 21:33N 52°28' E 004°36'0 0.0
2017-Feb-16 20:33N 52°28' E 004°36'0 0.0
2017-Feb-16 19:21N 52°28' E 004°36'0 0.0
2017-Feb-16 18:33N 52°28' E 004°36'0 0.0
2017-Feb-16 17:33N 52°28' E 004°36'0 0.0
2017-Feb-16 16:33N 52°28' E 004°36'0 0.0
2017-Feb-16 15:33N 52°28' E 004°36'0 0.0
2017-Feb-16 13:33N 52°28' E 004°36'0 0.1
2017-Feb-16 12:33N 52°28' E 004°36'0 0.0
2017-Feb-16 11:33N 52°28' E 004°36'0 0.0
2017-Feb-16 09:33N 52°28' E 004°36'0 0.0
2017-Feb-16 08:34N 52°28' E 004°36'0 0.0
2017-Feb-16 07:33N 52°28' E 004°36'0 0.0
2017-Feb-16 06:33N 52°28' E 004°36'0 0.0
2017-Feb-16 05:33N 52°28' E 004°36'0 0.0
2017-Feb-16 03:34N 52°28' E 004°36'0 0.0
2017-Feb-16 02:34N 52°28' E 004°36'0 0.0
2017-Feb-16 01:34N 52°28' E 004°36'0 0.0
2017-Feb-16 00:33N 52°28' E 004°36'0 0.0
2017-Feb-15 23:33N 52°28' E 004°36'0 0.0
2017-Feb-15 22:33N 52°28' E 004°36'0 0.0
2017-Feb-15 21:34N 52°28' E 004°36'0 0.0
2017-Feb-15 20:34N 52°28' E 004°36'0 0.0
2017-Feb-15 19:33N 52°28' E 004°36'0 0.0
2017-Feb-15 18:34N 52°28' E 004°36'1 0.6
2017-Feb-15 17:33N 52°28' E 004°36'0 0.2
2017-Feb-15 16:33N 52°28' E 004°36'3 3.2
2017-Feb-15 15:33N 52°27' E 004°41'5 5.2
2017-Feb-15 14:34N 52°25' E 004°49'0 0.0
2017-Feb-15 13:33N 52°25' E 004°49'0 0.0
2017-Feb-15 12:33N 52°25' E 004°49'0 0.0
2017-Feb-15 11:33N 52°25' E 004°49'0 0.0
2017-Feb-15 10:31N 52°25' E 004°49'0 0.0
2017-Feb-15 09:30N 52°25' E 004°49'0 0.0
2017-Feb-15 08:30N 52°25' E 004°49'0 0.0
2017-Feb-15 07:33N 52°25' E 004°49'4 4.3
2017-Feb-15 06:33N 52°26' E 004°42'4 4.1
2017-Feb-15 05:33N 52°28' E 004°36'8 7.5
2017-Feb-15 04:33N 52°28' E 004°24'8 8.3
2017-Feb-15 03:33N 52°29' E 004°10'8 7.9
2017-Feb-15 02:34N 52°27' E 003°58'7 6.8
2017-Feb-15 01:33N 52°24' E 003°48'74 7.4
2017-Feb-14 15:31N 51°32' E 002°21'1212.2
2017-Feb-14 14:33N 51°22' E 002°11'1211.9
2017-Feb-14 13:33N 51°12' E 002°01'1212.0
2017-Feb-14 12:33N 51°05' E 001°46'1111.2
2017-Feb-14 11:33N 50°57' E 001°34'61 7.5
2017-Feb-14 03:31N 50°24' E 000°14'7 7.2
2017-Feb-14 02:33N 50°22' E 000°03'7 7.4
2017-Feb-14 01:32N 50°21' W 000°08'10 8.1
2017-Feb-14 00:19N 50°20' W 000°24'82 6.0
2017-Feb-13 10:33N 50°12' W 002°32'8 7.6
2017-Feb-13 09:29N 50°12' W 002°45'7 7.2
2017-Feb-13 08:33N 50°11' W 002°55'7 6.6
2017-Feb-13 07:33N 50°10' W 003°05'6 6.4
2017-Feb-13 06:33N 50°08' W 003°15'6 5.9
2017-Feb-13 05:33N 50°07' W 003°24'5 4.9
2017-Feb-13 04:33N 50°06' W 003°31'4 4.3
2017-Feb-13 03:34N 50°05' W 003°38'3 3.4
2017-Feb-13 02:33N 50°05' W 003°43'4 3.6
2017-Feb-13 01:33N 50°04' W 003°49'4 3.7
2017-Feb-13 00:33N 50°03' W 003°54'4 3.7
2017-Feb-12 23:31N 50°02' W 004°00'5 4.2
2017-Feb-12 22:22N 50°01' W 004°08'4 4.8
2017-Feb-12 21:28N 50°00' W 004°14'5 5.0
2017-Feb-12 20:33N 49°59' W 004°21'5 5.4
2017-Feb-12 19:33N 49°58' W 004°29'6 5.8
2017-Feb-12 18:33N 49°57' W 004°38'7 5.9
2017-Feb-12 17:22N 49°56' W 004°49'13 6.1
2017-Feb-12 15:12N 49°53' W 005°08'42 5.2
2017-Feb-12 07:14N 50°25' W 005°49'7 9.8
2017-Feb-12 06:33N 50°30' W 005°42'9 9.2
2017-Feb-12 05:33N 50°36' W 005°31'9 9.1
2017-Feb-12 04:33N 50°41' W 005°20'9 9.3
2017-Feb-12 03:33N 50°47' W 005°09'10 9.8
2017-Feb-12 02:33N 50°54' W 004°57'1010.5
2017-Feb-12 01:33N 51°01' W 004°44'1111.3
2017-Feb-12 00:33N 51°08' W 004°31'1212.0
2017-Feb-11 23:33N 51°16' W 004°16'4513.1
2017-Feb-11 20:08N 51°27' W 003°06'610.4
2017-Feb-11 19:33N 51°31' W 002°59'3 2.6
2017-Feb-11 18:33N 51°34' W 002°58'0 0.0
2017-Feb-11 17:24N 51°34' W 002°58'0 0.0
2017-Feb-11 16:24N 51°34' W 002°58'0 0.0
2017-Feb-11 15:30N 51°34' W 002°58'0 0.0
2017-Feb-11 13:12N 51°34' W 002°58'0 0.0
2017-Feb-11 12:30N 51°34' W 002°58'0 0.0
2017-Feb-11 11:30N 51°34' W 002°58'0 0.0
2017-Feb-11 10:30N 51°34' W 002°58'0 0.0
2017-Feb-11 09:30N 51°34' W 002°58'0 0.0
2017-Feb-11 08:33N 51°34' W 002°58'0 0.0
2017-Feb-11 07:33N 51°34' W 002°58'0 0.0
2017-Feb-11 06:33N 51°34' W 002°58'0 0.0
2017-Feb-11 05:33N 51°34' W 002°58'0 0.0
2017-Feb-11 04:29N 51°34' W 002°58'0 0.0
2017-Feb-11 03:29N 51°34' W 002°58'0 0.0
2017-Feb-11 02:32N 51°34' W 002°58'0 0.0
2017-Feb-11 01:29N 51°34' W 002°58'0 0.0
2017-Feb-11 00:32N 51°34' W 002°58'0 0.0
2017-Feb-10 23:32N 51°34' W 002°58'0 0.0
2017-Feb-10 22:32N 51°34' W 002°58'0 0.0
2017-Feb-10 21:32N 51°34' W 002°58'0 0.0
2017-Feb-10 20:32N 51°34' W 002°58'0 0.0
2017-Feb-10 19:26N 51°34' W 002°58'1 0.7
2017-Feb-10 18:34N 51°33' W 002°58'1 0.6
2017-Feb-10 17:32N 51°34' W 002°58'0 0.0
2017-Feb-10 16:32N 51°34' W 002°58'0 0.0
2017-Feb-10 15:26N 51°34' W 002°58'0 0.0
2017-Feb-10 14:32N 51°34' W 002°58'0 0.0
2017-Feb-10 13:14N 51°34' W 002°58'0 0.0
2017-Feb-10 12:29N 51°34' W 002°58'0 0.0
2017-Feb-10 11:17N 51°34' W 002°58'0 0.0
2017-Feb-10 09:23N 51°34' W 002°58'0 0.0
2017-Feb-10 08:29N 51°34' W 002°58'0 0.0
2017-Feb-10 07:23N 51°34' W 002°58'0 0.0
2017-Feb-10 06:33N 51°34' W 002°58'1 1.3
2017-Feb-10 05:32N 51°33' W 002°59'9 9.2
2017-Feb-10 04:33N 51°24' W 003°06'9 1.4
2017-Feb-09 22:06N 51°22' W 003°19'0 0.0
2017-Feb-09 21:21N 51°22' W 003°19'0 0.0
2017-Feb-09 20:25N 51°22' W 003°19'0 0.0
2017-Feb-09 19:29N 51°22' W 003°19'  
Track history (hours):
 
Tides and Currents Weather Stations Pressure Air Temp Water Temp Dewpoint Dewpoint Depression Visibility Wind Speed Wind Dir Waves Ship Positions

Helas

Last reported at 2017-Feb-19 19:19 UTC. Time now 2017-Feb-23 04:45 UTC.
Position N 49°39' W 003°43'.

Length 89 m; draft 5.6 m.

Type: Cargo ship. MMSI: 210031000.

Date/timePositionNaut miles runAvg speedWind from/ knotsBaromVisibWave heightAir tempDewpointWater temp
2017-Feb-19 19:19N 49°39' W 003°43'11 9.3
2017-Feb-19 18:09N 49°44' W 003°29'6 9.3
2017-Feb-19 17:32N 49°47' W 003°21'18 9.0
2017-Feb-19 15:33N 49°56' W 002°57'40 8.0
2017-Feb-19 10:33N 50°08' W 001°58'9 9.1
2017-Feb-19 09:33N 50°11' W 001°44'1010.0
2017-Feb-19 08:33N 50°14' W 001°29'1110.7
2017-Feb-19 07:32N 50°17' W 001°13'2110.7
2017-Feb-19 05:33N 50°23' W 000°41'10 9.8
2017-Feb-19 04:33N 50°26' W 000°27'9 9.2
2017-Feb-19 03:33N 50°29' W 000°13'8 8.5
2017-Feb-19 02:33N 50°31' W 000°00'8 8.1
2017-Feb-19 01:33N 50°34' E 000°12'8 8.0
2017-Feb-19 00:33N 50°36' E 000°24'8 8.5
2017-Feb-18 23:33N 50°40' E 000°36'10 9.5
2017-Feb-18 22:33N 50°45' E 000°49'10 9.9
2017-Feb-18 21:33N 50°51' E 001°01'10 9.8
2017-Feb-18 20:33N 50°57' E 001°13'9 9.2
2017-Feb-18 19:33N 51°03' E 001°25'8 8.1
2017-Feb-18 18:33N 51°08' E 001°35'7 7.2
2017-Feb-18 17:33N 51°13' E 001°43'7 7.4
2017-Feb-18 16:33N 51°19' E 001°50'8 8.3
2017-Feb-18 15:33N 51°26' E 001°56'9 9.6
2017-Feb-18 14:33N 51°33' E 002°06'1110.6
2017-Feb-18 13:31N 51°42' E 002°18'56 9.4
2017-Feb-18 07:33N 52°20' E 003°25'8 8.2
2017-Feb-18 06:33N 52°24' E 003°37'10 8.4
2017-Feb-18 05:25N 52°29' E 003°50'8 9.1
2017-Feb-18 04:33N 52°31' E 004°02'10 9.5
2017-Feb-18 03:33N 52°30' E 004°18'9 9.0
2017-Feb-18 02:34N 52°28' E 004°32'3 2.5
2017-Feb-18 01:31N 52°28' E 004°36'0 0.0
2017-Feb-18 00:31N 52°28' E 004°36'0 0.0
2017-Feb-17 23:31N 52°28' E 004°36'0 0.0
2017-Feb-17 22:31N 52°28' E 004°36'0 0.0
2017-Feb-17 21:31N 52°28' E 004°36'0 0.0
2017-Feb-17 20:28N 52°28' E 004°36'0 0.0
2017-Feb-17 18:31N 52°28' E 004°36'0 0.0
2017-Feb-17 17:31N 52°28' E 004°36'0 0.0
2017-Feb-17 16:31N 52°28' E 004°36'0 0.0
2017-Feb-17 15:31N 52°28' E 004°36'0 0.0
2017-Feb-17 14:31N 52°28' E 004°36'0 0.0
2017-Feb-17 13:31N 52°28' E 004°36'0 0.0
2017-Feb-17 12:31N 52°28' E 004°36'0 0.0
2017-Feb-17 11:31N 52°28' E 004°36'0 0.0
2017-Feb-17 10:31N 52°28' E 004°36'0 0.0
2017-Feb-17 09:31N 52°28' E 004°36'0 0.0
2017-Feb-17 08:31N 52°28' E 004°36'0 0.0
2017-Feb-17 07:34N 52°28' E 004°36'0 0.0
2017-Feb-17 06:33N 52°28' E 004°36'0 0.0
2017-Feb-17 05:33N 52°28' E 004°36'0 0.0
2017-Feb-17 04:33N 52°28' E 004°36'0 0.0
2017-Feb-17 03:27N 52°28' E 004°36'0 0.0
2017-Feb-17 02:33N 52°28' E 004°36'0 0.0
2017-Feb-17 01:33N 52°28' E 004°36'0 0.0
2017-Feb-17 00:33N 52°28' E 004°36'0 0.0
2017-Feb-16 23:33N 52°28' E 004°36'0 0.0
2017-Feb-16 22:33N 52°28' E 004°36'0 0.0
2017-Feb-16 21:33N 52°28' E 004°36'0 0.0
2017-Feb-16 20:33N 52°28' E 004°36'0 0.0
2017-Feb-16 19:21N 52°28' E 004°36'0 0.0
2017-Feb-16 18:33N 52°28' E 004°36'0 0.0
2017-Feb-16 17:33N 52°28' E 004°36'0 0.0
2017-Feb-16 16:33N 52°28' E 004°36'0 0.0
2017-Feb-16 15:33N 52°28' E 004°36'0 0.0
2017-Feb-16 13:33N 52°28' E 004°36'0 0.1
2017-Feb-16 12:33N 52°28' E 004°36'0 0.0
2017-Feb-16 11:33N 52°28' E 004°36'0 0.0
2017-Feb-16 09:33N 52°28' E 004°36'0 0.0
2017-Feb-16 08:34N 52°28' E 004°36'0 0.0
2017-Feb-16 07:33N 52°28' E 004°36'0 0.0
2017-Feb-16 06:33N 52°28' E 004°36'0 0.0
2017-Feb-16 05:33N 52°28' E 004°36'0 0.0
2017-Feb-16 03:34N 52°28' E 004°36'0 0.0
2017-Feb-16 02:34N 52°28' E 004°36'0 0.0
2017-Feb-16 01:34N 52°28' E 004°36'0 0.0
2017-Feb-16 00:33N 52°28' E 004°36'0 0.0
2017-Feb-15 23:33N 52°28' E 004°36'0 0.0
2017-Feb-15 22:33N 52°28' E 004°36'0 0.0
2017-Feb-15 21:34N 52°28' E 004°36'0 0.0
2017-Feb-15 20:34N 52°28' E 004°36'0 0.0
2017-Feb-15 19:33N 52°28' E 004°36'0 0.0
2017-Feb-15 18:34N 52°28' E 004°36'1 0.6
2017-Feb-15 17:33N 52°28' E 004°36'0 0.2
2017-Feb-15 16:33N 52°28' E 004°36'3 3.2
2017-Feb-15 15:33N 52°27' E 004°41'5 5.2
2017-Feb-15 14:34N 52°25' E 004°49'0 0.0
2017-Feb-15 13:33N 52°25' E 004°49'0 0.0
2017-Feb-15 12:33N 52°25' E 004°49'0 0.0
2017-Feb-15 11:33N 52°25' E 004°49'0 0.0
2017-Feb-15 10:31N 52°25' E 004°49'0 0.0
2017-Feb-15 09:30N 52°25' E 004°49'0 0.0
2017-Feb-15 08:30N 52°25' E 004°49'0 0.0
2017-Feb-15 07:33N 52°25' E 004°49'4 4.3
2017-Feb-15 06:33N 52°26' E 004°42'4 4.1
2017-Feb-15 05:33N 52°28' E 004°36'8 7.5
2017-Feb-15 04:33N 52°28' E 004°24'8 8.3
2017-Feb-15 03:33N 52°29' E 004°10'8 7.9
2017-Feb-15 02:34N 52°27' E 003°58'7 6.8
2017-Feb-15 01:33N 52°24' E 003°48'74 7.4
2017-Feb-14 15:31N 51°32' E 002°21'1212.2
2017-Feb-14 14:33N 51°22' E 002°11'1211.9
2017-Feb-14 13:33N 51°12' E 002°01'1212.0
2017-Feb-14 12:33N 51°05' E 001°46'1111.2
2017-Feb-14 11:33N 50°57' E 001°34'61 7.5
2017-Feb-14 03:31N 50°24' E 000°14'7 7.2
2017-Feb-14 02:33N 50°22' E 000°03'7 7.4
2017-Feb-14 01:32N 50°21' W 000°08'10 8.1
2017-Feb-14 00:19N 50°20' W 000°24'82 6.0
2017-Feb-13 10:33N 50°12' W 002°32'8 7.6
2017-Feb-13 09:29N 50°12' W 002°45'7 7.2
2017-Feb-13 08:33N 50°11' W 002°55'7 6.6
2017-Feb-13 07:33N 50°10' W 003°05'6 6.4
2017-Feb-13 06:33N 50°08' W 003°15'6 5.9
2017-Feb-13 05:33N 50°07' W 003°24'5 4.9
2017-Feb-13 04:33N 50°06' W 003°31'4 4.3
2017-Feb-13 03:34N 50°05' W 003°38'3 3.4
2017-Feb-13 02:33N 50°05' W 003°43'4 3.6
2017-Feb-13 01:33N 50°04' W 003°49'4 3.7
2017-Feb-13 00:33N 50°03' W 003°54'4 3.7
2017-Feb-12 23:31N 50°02' W 004°00'5 4.2
2017-Feb-12 22:22N 50°01' W 004°08'4 4.8
2017-Feb-12 21:28N 50°00' W 004°14'5 5.0
2017-Feb-12 20:33N 49°59' W 004°21'5 5.4
2017-Feb-12 19:33N 49°58' W 004°29'6 5.8
2017-Feb-12 18:33N 49°57' W 004°38'7 5.9
2017-Feb-12 17:22N 49°56' W 004°49'13 6.1
2017-Feb-12 15:12N 49°53' W 005°08'42 5.2
2017-Feb-12 07:14N 50°25' W 005°49'7 9.8
2017-Feb-12 06:33N 50°30' W 005°42'9 9.2
2017-Feb-12 05:33N 50°36' W 005°31'9 9.1
2017-Feb-12 04:33N 50°41' W 005°20'9 9.3
2017-Feb-12 03:33N 50°47' W 005°09'10 9.8
2017-Feb-12 02:33N 50°54' W 004°57'1010.5
2017-Feb-12 01:33N 51°01' W 004°44'1111.3
2017-Feb-12 00:33N 51°08' W 004°31'1212.0
2017-Feb-11 23:33N 51°16' W 004°16'4513.1
2017-Feb-11 20:08N 51°27' W 003°06'610.4
2017-Feb-11 19:33N 51°31' W 002°59'3 2.6
2017-Feb-11 18:33N 51°34' W 002°58'0 0.0
2017-Feb-11 17:24N 51°34' W 002°58'0 0.0
2017-Feb-11 16:24N 51°34' W 002°58'0 0.0
2017-Feb-11 15:30N 51°34' W 002°58'0 0.0
2017-Feb-11 13:12N 51°34' W 002°58'0 0.0
2017-Feb-11 12:30N 51°34' W 002°58'0 0.0
2017-Feb-11 11:30N 51°34' W 002°58'0 0.0
2017-Feb-11 10:30N 51°34' W 002°58'0 0.0
2017-Feb-11 09:30N 51°34' W 002°58'0 0.0
2017-Feb-11 08:33N 51°34' W 002°58'0 0.0
2017-Feb-11 07:33N 51°34' W 002°58'0 0.0
2017-Feb-11 06:33N 51°34' W 002°58'0 0.0
2017-Feb-11 05:33N 51°34' W 002°58'0 0.0
2017-Feb-11 04:29N 51°34' W 002°58'0 0.0
2017-Feb-11 03:29N 51°34' W 002°58'0 0.0
2017-Feb-11 02:32N 51°34' W 002°58'0 0.0
2017-Feb-11 01:29N 51°34' W 002°58'0 0.0
2017-Feb-11 00:32N 51°34' W 002°58'0 0.0
2017-Feb-10 23:32N 51°34' W 002°58'0 0.0
2017-Feb-10 22:32N 51°34' W 002°58'0 0.0
2017-Feb-10 21:32N 51°34' W 002°58'0 0.0
2017-Feb-10 20:32N 51°34' W 002°58'0 0.0
2017-Feb-10 19:26N 51°34' W 002°58'1 0.7
2017-Feb-10 18:34N 51°33' W 002°58'1 0.6
2017-Feb-10 17:32N 51°34' W 002°58'0 0.0
2017-Feb-10 16:32N 51°34' W 002°58'0 0.0
2017-Feb-10 15:26N 51°34' W 002°58'0 0.0
2017-Feb-10 14:32N 51°34' W 002°58'0 0.0
2017-Feb-10 13:14N 51°34' W 002°58'0 0.0
2017-Feb-10 12:29N 51°34' W 002°58'0 0.0
2017-Feb-10 11:17N 51°34' W 002°58'0 0.0
2017-Feb-10 09:23N 51°34' W 002°58'0 0.0
2017-Feb-10 08:29N 51°34' W 002°58'0 0.0
2017-Feb-10 07:23N 51°34' W 002°58'0 0.0
2017-Feb-10 06:33N 51°34' W 002°58'1 1.3
2017-Feb-10 05:32N 51°33' W 002°59'9 9.2
2017-Feb-10 04:33N 51°24' W 003°06'9 1.4
2017-Feb-09 22:06N 51°22' W 003°19'0 0.0
2017-Feb-09 21:21N 51°22' W 003°19'0 0.0
2017-Feb-09 20:25N 51°22' W 003°19'0 0.0
2017-Feb-09 19:29N 51°22' W 003°19'  

Dump ship's entire track history